Time;durP1;ratioP1;P1;durP2;ratioP2;P2;SDS_P1;SDS_P2;PMS_P1;PMS_P2;Temp;Humidity;BMP_temperature;BMP_pressure;BME280_temperature;BME280_humidity;BME280_pressure;Samples;Min_cycle;Max_cycle;Signal;HPM_P1;HPM_P2
2023/10/15 00:00:13;;;;;;;3.72;0.63;;;8.50;99.90;;;;;;5108453;27;20556;-67
2023/10/15 00:02:41;;;;;;;4.32;0.63;;;8.50;99.90;;;;;;5121116;27;20047;-67
2023/10/15 00:05:12;;;;;;;4.80;0.80;;;8.40;99.90;;;;;;5101917;27;20379;-67
2023/10/15 00:07:38;;;;;;;5.53;0.57;;;8.50;99.90;;;;;;5103287;27;20521;-67
2023/10/15 00:10:10;;;;;;;8.07;0.50;;;8.40;99.90;;;;;;5138683;27;20497;-67
2023/10/15 00:12:40;;;;;;;4.38;0.38;;;8.40;99.90;;;;;;5108808;27;20476;-67
2023/10/15 00:15:11;;;;;;;3.00;0.50;;;8.40;99.90;;;;;;5105358;27;20438;-67
2023/10/15 00:17:37;;;;;;;7.00;0.70;;;8.30;99.90;;;;;;5104980;27;20530;-67
2023/10/15 00:20:05;;;;;;;5.43;0.30;;;8.30;99.90;;;;;;5102689;27;20143;-67
2023/10/15 00:22:31;;;;;;;3.97;0.30;;;8.30;99.90;;;;;;5140364;27;20067;-67
2023/10/15 00:24:56;;;;;;;3.80;0.50;;;8.20;99.90;;;;;;5107029;27;20066;-67
2023/10/15 00:27:22;;;;;;;4.20;0.35;;;8.30;99.90;;;;;;5103399;27;20413;-67
2023/10/15 00:29:48;;;;;;;3.22;0.30;;;8.30;99.90;;;;;;5106262;27;20039;-67
2023/10/15 00:32:14;;;;;;;2.90;0.75;;;8.20;99.90;;;;;;5102120;27;20267;-67
2023/10/15 00:34:39;;;;;;;3.55;0.28;;;8.30;99.90;;;;;;5135114;27;20042;-67
2023/10/15 00:37:05;;;;;;;5.07;0.43;;;8.30;99.90;;;;;;5135342;27;20119;-67
2023/10/15 00:39:31;;;;;;;6.50;0.55;;;8.40;99.90;;;;;;5104178;27;20040;-67
2023/10/15 00:41:56;;;;;;;3.30;0.40;;;8.30;99.90;;;;;;5099508;28;20043;-67
2023/10/15 00:44:22;;;;;;;2.05;0.30;;;8.30;99.90;;;;;;5100770;28;20031;-67
2023/10/15 00:46:54;;;;;;;2.35;0.40;;;8.30;99.90;;;;;;5137581;27;20127;-68
2023/10/15 00:49:25;;;;;;;4.07;0.47;;;8.40;99.90;;;;;;5102665;27;20043;-67
2023/10/15 00:51:51;;;;;;;2.88;0.40;;;8.30;99.90;;;;;;5106779;27;20035;-67
2023/10/15 00:54:18;;;;;;;0.93;0.15;;;8.30;99.90;;;;;;5101871;27;20040;-67
2023/10/15 00:56:47;;;;;;;4.03;0.50;;;8.30;99.90;;;;;;5104976;27;20107;-67
2023/10/15 01:04:31;;;;;;;1.80;0.22;;;8.40;99.90;;;;;;5102558;28;20031;-67
2023/10/15 01:07:13;;;;;;;3.03;0.50;;;8.40;99.90;;;;;;5102570;28;20064;-67
2023/10/15 01:09:40;;;;;;;3.15;0.40;;;8.30;99.90;;;;;;5106304;27;20043;-67
2023/10/15 01:12:19;;;;;;;4.45;0.40;;;8.40;99.90;;;;;;5104144;27;20131;-67
2023/10/15 01:14:45;;;;;;;4.65;0.82;;;8.30;99.90;;;;;;5105419;27;20127;-67
2023/10/15 01:17:11;;;;;;;4.60;0.30;;;8.20;99.90;;;;;;5133134;27;20044;-67
2023/10/15 01:19:37;;;;;;;2.47;0.32;;;8.30;99.90;;;;;;5102284;28;20292;-67
2023/10/15 01:22:07;;;;;;;3.42;0.38;;;8.20;99.90;;;;;;5104534;27;20395;-67
2023/10/15 01:24:36;;;;;;;2.13;0.17;;;8.30;99.90;;;;;;5102845;27;20093;-67
2023/10/15 01:27:09;;;;;;;1.90;0.30;;;8.20;99.90;;;;;;5107256;27;20085;-67
2023/10/15 01:29:40;;;;;;;2.38;0.40;;;8.20;99.90;;;;;;5103044;27;20077;-67
2023/10/15 01:32:18;;;;;;;4.78;0.38;;;8.30;99.90;;;;;;5106137;27;20036;-67
2023/10/15 01:34:45;;;;;;;3.80;0.40;;;8.30;99.90;;;;;;5105561;27;20486;-67
2023/10/15 01:37:15;;;;;;;2.20;0.30;;;8.20;99.90;;;;;;5105746;27;20075;-67
2023/10/15 01:39:46;;;;;;;5.90;0.43;;;8.30;99.90;;;;;;5105011;27;20044;-67
2023/10/15 01:42:31;;;;;;;2.40;0.20;;;8.20;99.90;;;;;;5102568;27;20047;-67
2023/10/15 01:45:30;;;;;;;6.35;0.28;;;8.20;99.90;;;;;;5102532;27;20043;-67
2023/10/15 01:50:24;;;;;;;2.58;0.40;;;8.20;99.90;;;;;;5103088;27;20485;-67
2023/10/15 01:53:00;;;;;;;3.05;0.55;;;8.10;99.90;;;;;;5100874;27;20072;-67
2023/10/15 01:55:28;;;;;;;2.15;0.25;;;8.10;99.90;;;;;;5105696;27;20123;-67
2023/10/15 01:57:56;;;;;;;3.15;0.70;;;8.10;99.90;;;;;;5101954;27;20035;-67
2023/10/15 02:01:08;;;;;;;4.65;0.43;;;8.10;99.90;;;;;;5107480;27;20035;-67
2023/10/15 02:03:11;;;;;;;2.10;0.30;;;8.00;99.90;;;;;;5098296;27;20051;-67
2023/10/15 02:05:44;;;;;;;2.30;0.32;;;8.00;99.90;;;;;;5104972;27;20086;-67
2023/10/15 02:08:13;;;;;;;1.65;0.65;;;7.90;99.90;;;;;;5105649;27;20482;-67
2023/10/15 02:10:40;;;;;;;3.95;0.40;;;7.80;99.90;;;;;;5105605;27;20062;-67
2023/10/15 02:13:10;;;;;;;2.00;0.30;;;7.80;99.90;;;;;;5103291;27;20044;-67
2023/10/15 02:15:41;;;;;;;3.83;0.30;;;7.80;99.90;;;;;;5106579;27;20091;-67
2023/10/15 02:18:09;;;;;;;1.45;0.32;;;7.70;99.90;;;;;;5106779;27;20077;-67
2023/10/15 02:21:00;;;;;;;1.30;0.13;;;7.70;99.90;;;;;;5090459;28;20051;-67
2023/10/15 02:23:27;;;;;;;2.20;0.35;;;7.70;99.90;;;;;;5105127;27;20089;-67
2023/10/15 02:25:59;;;;;;;4.97;0.40;;;7.60;99.90;;;;;;5103416;27;20082;-67
2023/10/15 02:28:32;;;;;;;3.15;0.30;;;7.50;99.90;;;;;;5106694;27;20054;-67
2023/10/15 02:33:29;;;;;;;4.25;0.40;;;7.50;99.90;;;;;;5136009;27;20047;-67
2023/10/15 02:35:59;;;;;;;1.73;0.20;;;7.50;99.90;;;;;;5102801;27;20048;-67
2023/10/15 02:38:26;;;;;;;2.88;0.20;;;7.50;99.90;;;;;;5102510;27;20071;-67
2023/10/15 02:41:03;;;;;;;3.40;0.40;;;7.60;99.90;;;;;;5093366;27;20062;-67
2023/10/15 02:43:30;;;;;;;2.40;0.30;;;7.60;99.90;;;;;;5099443;27;20036;-67
2023/10/15 02:48:41;;;;;;;2.20;0.30;;;7.50;99.90;;;;;;5071714;28;20143;-67
2023/10/15 02:51:08;;;;;;;1.95;0.30;;;7.40;99.90;;;;;;5133219;27;20122;-67
2023/10/15 02:53:38;;;;;;;3.33;0.32;;;7.50;99.90;;;;;;5100569;27;20052;-67
2023/10/15 02:56:10;;;;;;;2.63;0.30;;;7.40;99.90;;;;;;5135282;27;20050;-67
2023/10/15 02:58:37;;;;;;;3.17;0.35;;;7.40;99.90;;;;;;5101081;27;20077;-67
2023/10/15 03:01:12;;;;;;;8.05;0.30;;;7.40;99.90;;;;;;5106697;27;20366;-67
2023/10/15 03:03:38;;;;;;;4.28;0.32;;;7.40;99.90;;;;;;5107544;27;20615;-67
2023/10/15 03:06:09;;;;;;;4.00;0.40;;;7.40;99.90;;;;;;5104553;27;20051;-67
2023/10/15 03:08:36;;;;;;;5.20;0.47;;;7.40;99.90;;;;;;5097946;28;20059;-67
2023/10/15 03:11:12;;;;;;;3.42;0.30;;;7.40;99.90;;;;;;5100216;27;20039;-67
2023/10/15 03:13:53;;;;;;;4.28;0.25;;;7.30;99.90;;;;;;5106243;27;20035;-67
2023/10/15 03:16:23;;;;;;;2.33;0.50;;;7.30;99.90;;;;;;5102689;27;20594;-67
2023/10/15 03:18:49;;;;;;;2.70;0.38;;;7.30;99.90;;;;;;5103459;27;20500;-67
2023/10/15 03:21:30;;;;;;;4.18;0.43;;;7.30;99.90;;;;;;5100568;27;20042;-67
2023/10/15 03:23:57;;;;;;;2.20;0.32;;;7.30;99.90;;;;;;5102165;27;20047;-67
2023/10/15 03:26:24;;;;;;;2.65;0.45;;;7.30;99.90;;;;;;5104289;27;20047;-67
2023/10/15 03:28:58;;;;;;;7.13;0.52;;;7.20;99.90;;;;;;5104344;27;20545;-67
2023/10/15 03:31:25;;;;;;;3.38;0.35;;;7.20;99.90;;;;;;5101991;28;20040;-67
2023/10/15 03:39:15;;;;;;;2.45;0.50;;;7.10;99.90;;;;;;5106341;28;20042;-67
2023/10/15 03:41:43;;;;;;;7.95;0.40;;;7.10;99.90;;;;;;5101564;28;20507;-67
2023/10/15 03:44:10;;;;;;;2.78;0.20;;;7.10;99.90;;;;;;5099978;28;20035;-67
2023/10/15 03:46:37;;;;;;;3.75;0.70;;;7.10;99.90;;;;;;5102650;28;20047;-67
2023/10/15 03:49:07;;;;;;;2.25;0.50;;;7.10;99.90;;;;;;5098346;28;20486;-67
2023/10/15 03:51:40;;;;;;;1.77;0.38;;;7.00;99.90;;;;;;5131728;27;20052;-67
2023/10/15 03:54:07;;;;;;;2.63;0.30;;;7.00;99.90;;;;;;5103206;28;20092;-67
2023/10/15 03:56:34;;;;;;;3.17;0.30;;;7.00;99.90;;;;;;5103970;28;20044;-67
2023/10/15 03:59:01;;;;;;;2.65;0.52;;;6.90;99.90;;;;;;5135745;27;20036;-67
2023/10/15 04:01:27;;;;;;;1.45;0.20;;;6.90;99.90;;;;;;5099798;28;20082;-67
2023/10/15 04:03:53;;;;;;;3.78;0.80;;;6.90;99.90;;;;;;5098197;28;20101;-67
2023/10/15 04:06:20;;;;;;;3.45;1.38;;;6.90;99.90;;;;;;5098933;28;20035;-67
2023/10/15 04:11:30;;;;;;;2.05;0.28;;;6.80;99.90;;;;;;5132460;27;20047;-67
2023/10/15 04:14:11;;;;;;;2.88;0.20;;;6.80;99.90;;;;;;5104657;28;20031;-67
2023/10/15 04:16:37;;;;;;;13.85;0.70;;;6.80;99.90;;;;;;5100232;28;20052;-67
2023/10/15 04:19:03;;;;;;;4.78;0.85;;;6.80;99.90;;;;;;5131060;27;20355;-67
2023/10/15 04:21:29;;;;;;;4.53;0.73;;;6.80;99.90;;;;;;5101781;28;21148;-67
2023/10/15 04:23:56;;;;;;;3.15;0.30;;;6.80;99.90;;;;;;5100779;28;20039;-67
2023/10/15 04:26:28;;;;;;;0.80;0.20;;;6.80;99.90;;;;;;5100669;28;20048;-67
2023/10/15 04:28:54;;;;;;;3.85;0.57;;;6.90;99.90;;;;;;5106842;28;20080;-67
2023/10/15 04:31:23;;;;;;;3.28;0.38;;;6.90;99.90;;;;;;5108025;28;20047;-67
2023/10/15 04:33:54;;;;;;;1.30;0.47;;;6.90;99.90;;;;;;5103709;27;20040;-67
2023/10/15 04:36:20;;;;;;;2.33;0.25;;;6.90;99.90;;;;;;5104537;27;20039;-67
2023/10/15 04:38:46;;;;;;;3.92;0.40;;;7.00;99.90;;;;;;5107400;27;20046;-67
2023/10/15 04:41:21;;;;;;;2.20;0.20;;;7.00;99.90;;;;;;5105738;27;20032;-67
2023/10/15 04:43:47;;;;;;;3.20;0.25;;;7.10;99.90;;;;;;5112443;27;20032;-67
2023/10/15 04:46:17;;;;;;;3.60;1.30;;;7.00;99.90;;;;;;5105076;27;20055;-67
2023/10/15 04:48:45;;;;;;;3.53;0.30;;;7.00;99.90;;;;;;5106514;27;20088;-67
2023/10/15 04:51:12;;;;;;;1.95;0.22;;;7.10;99.90;;;;;;5108112;27;20044;-67
2023/10/15 04:53:50;;;;;;;4.20;0.25;;;7.10;99.90;;;;;;5105940;27;20073;-67
2023/10/15 04:56:16;;;;;;;2.75;0.32;;;7.10;99.90;;;;;;5103995;27;20043;-67
2023/10/15 04:58:42;;;;;;;2.47;0.20;;;7.10;99.90;;;;;;5103413;27;20039;-67
2023/10/15 05:01:08;;;;;;;4.72;0.30;;;7.10;99.90;;;;;;5105841;27;20027;-67
2023/10/15 05:03:36;;;;;;;2.83;0.32;;;7.20;99.90;;;;;;5107081;27;20036;-67
2023/10/15 05:06:04;;;;;;;1.83;0.30;;;7.10;99.90;;;;;;5108793;27;20055;-67
2023/10/15 05:08:30;;;;;;;1.70;0.30;;;7.20;99.90;;;;;;5108334;27;20055;-67
2023/10/15 05:10:56;;;;;;;2.80;0.25;;;7.20;99.90;;;;;;5106728;27;20040;-67
2023/10/15 05:13:21;;;;;;;2.85;0.20;;;7.20;99.90;;;;;;5129082;27;20130;-67
2023/10/15 05:15:48;;;;;;;3.00;0.30;;;7.20;99.90;;;;;;5104918;27;20156;-67
2023/10/15 05:18:15;;;;;;;2.72;0.20;;;7.20;99.90;;;;;;5108615;27;20388;-67
2023/10/15 05:20:42;;;;;;;5.57;0.73;;;7.30;99.90;;;;;;5106597;27;20118;-67
2023/10/15 05:23:08;;;;;;;4.15;0.47;;;7.30;99.90;;;;;;5136780;27;20042;-67
2023/10/15 05:25:33;;;;;;;1.08;0.30;;;7.30;99.90;;;;;;5104650;27;20055;-67
2023/10/15 05:27:59;;;;;;;0.88;0.22;;;7.30;99.90;;;;;;5101549;27;20039;-67
2023/10/15 05:30:26;;;;;;;2.88;0.30;;;7.20;99.90;;;;;;5132993;27;20075;-67
2023/10/15 05:32:52;;;;;;;4.35;0.15;;;7.20;99.90;;;;;;5103662;27;20115;-67
2023/10/15 05:35:18;;;;;;;2.70;0.45;;;7.20;99.90;;;;;;5105187;27;20036;-67
2023/10/15 05:37:44;;;;;;;2.78;0.95;;;7.30;99.90;;;;;;5107707;27;20096;-67
2023/10/15 05:40:15;;;;;;;1.23;0.17;;;7.30;99.90;;;;;;5103509;27;20063;-67
2023/10/15 05:42:41;;;;;;;2.05;0.13;;;7.30;99.90;;;;;;5111563;27;20131;-67
2023/10/15 05:45:07;;;;;;;3.33;0.30;;;7.30;99.90;;;;;;5099955;27;20036;-67
2023/10/15 05:47:34;;;;;;;1.30;0.50;;;7.30;99.90;;;;;;5086945;27;20477;-67
2023/10/15 05:50:00;;;;;;;6.28;1.58;;;7.30;99.90;;;;;;5100138;27;20075;-67
2023/10/15 05:52:26;;;;;;;4.07;0.25;;;7.30;99.90;;;;;;5101031;27;20115;-67
2023/10/15 05:54:53;;;;;;;4.22;0.65;;;7.20;99.90;;;;;;5133488;27;20036;-67
2023/10/15 05:57:22;;;;;;;1.35;0.10;;;7.20;99.90;;;;;;5095707;27;20051;-67
2023/10/15 05:59:51;;;;;;;5.28;0.20;;;7.30;99.90;;;;;;5101630;28;20042;-66
2023/10/15 06:02:17;;;;;;;1.27;0.17;;;7.30;99.90;;;;;;5099607;28;20673;-67
2023/10/15 06:04:43;;;;;;;0.98;0.10;;;7.30;99.90;;;;;;5102304;27;20561;-67
2023/10/15 06:07:10;;;;;;;1.73;0.10;;;7.30;99.90;;;;;;5098331;27;20501;-67
2023/10/15 06:09:36;;;;;;;2.33;0.40;;;7.20;99.90;;;;;;5130272;27;20058;-67
2023/10/15 06:12:03;;;;;;;3.58;0.90;;;7.30;99.90;;;;;;5101983;28;20040;-67
2023/10/15 06:14:28;;;;;;;4.10;0.32;;;7.20;99.90;;;;;;5104091;27;20039;-67
2023/10/15 06:16:58;;;;;;;2.05;0.25;;;7.20;99.90;;;;;;5096312;27;20573;-67
2023/10/15 06:19:24;;;;;;;2.13;0.65;;;7.20;99.90;;;;;;5133011;27;20586;-67
2023/10/15 06:21:50;;;;;;;3.33;0.40;;;7.20;99.90;;;;;;5102098;27;20032;-67
2023/10/15 06:24:16;;;;;;;1.17;0.20;;;7.20;99.90;;;;;;5108071;27;20073;-67
2023/10/15 06:26:41;;;;;;;2.60;0.20;;;7.20;99.90;;;;;;5104120;27;20047;-67
2023/10/15 06:29:09;;;;;;;0.73;0.10;;;7.20;99.90;;;;;;5101638;27;20596;-67
2023/10/15 06:31:36;;;;;;;1.13;0.10;;;7.20;99.90;;;;;;5105288;27;20132;-67
2023/10/15 06:34:01;;;;;;;1.20;0.20;;;7.20;99.90;;;;;;5104364;27;20108;-67
2023/10/15 06:36:27;;;;;;;3.08;0.47;;;7.50;99.90;;;;;;5100359;27;20048;-66
2023/10/15 06:38:52;;;;;;;2.75;0.20;;;7.20;99.90;;;;;;5098024;27;20043;-67
2023/10/15 06:41:18;;;;;;;4.07;0.40;;;7.20;99.90;;;;;;5102142;27;20411;-67
2023/10/15 06:43:44;;;;;;;3.25;0.30;;;7.20;99.90;;;;;;5106292;27;20104;-67
2023/10/15 06:46:10;;;;;;;3.40;0.20;;;7.20;99.90;;;;;;5103571;27;20564;-67
2023/10/15 06:48:37;;;;;;;1.92;0.20;;;7.30;99.90;;;;;;5101881;27;20050;-67
2023/10/15 06:51:05;;;;;;;1.27;0.20;;;7.40;99.90;;;;;;5100165;27;20039;-67
2023/10/15 06:53:36;;;;;;;4.80;0.40;;;7.30;99.90;;;;;;5101246;27;20383;-67
2023/10/15 06:56:06;;;;;;;1.65;0.13;;;7.30;99.90;;;;;;5102532;27;20035;-67
2023/10/15 06:58:38;;;;;;;0.57;0.10;;;7.30;99.90;;;;;;5103208;27;20046;-67
2023/10/15 07:01:06;;;;;;;2.42;0.22;;;7.30;99.90;;;;;;5100926;28;20311;-67
2023/10/15 07:03:33;;;;;;;1.15;0.30;;;7.30;99.90;;;;;;5097447;27;20517;-67
2023/10/15 07:05:58;;;;;;;1.85;0.20;;;7.30;99.90;;;;;;5101132;27;20051;-67
2023/10/15 07:08:25;;;;;;;1.85;0.20;;;7.30;99.90;;;;;;5100395;28;20409;-67
2023/10/15 07:10:50;;;;;;;1.92;0.40;;;7.40;99.90;;;;;;5100625;28;20611;-67
2023/10/15 07:13:18;;;;;;;1.45;0.17;;;7.40;99.90;;;;;;5106763;27;20027;-67
2023/10/15 07:15:45;;;;;;;1.05;0.57;;;7.30;99.90;;;;;;5100149;27;20485;-67
2023/10/15 07:18:12;;;;;;;1.52;0.10;;;7.40;99.90;;;;;;5130692;27;20031;-67
2023/10/15 07:20:37;;;;;;;2.28;0.20;;;7.40;99.90;;;;;;5100263;27;20062;-67
2023/10/15 07:23:03;;;;;;;2.65;0.25;;;7.40;99.90;;;;;;5102903;27;20047;-67
2023/10/15 07:25:29;;;;;;;2.05;0.30;;;7.40;99.90;;;;;;5134798;27;20039;-67
2023/10/15 07:27:59;;;;;;;1.48;0.15;;;7.50;99.90;;;;;;5102830;27;20165;-67
2023/10/15 07:30:26;;;;;;;3.00;0.40;;;7.50;99.90;;;;;;5100546;28;20031;-67
2023/10/15 07:32:53;;;;;;;3.40;0.40;;;7.50;99.90;;;;;;5106124;27;20279;-67
2023/10/15 07:35:21;;;;;;;2.60;0.25;;;7.50;99.90;;;;;;5104637;27;20051;-67
2023/10/15 07:37:49;;;;;;;1.90;0.10;;;7.50;99.90;;;;;;5099209;28;20474;-67
2023/10/15 07:40:17;;;;;;;2.72;0.30;;;7.50;99.90;;;;;;5133483;27;20071;-67
2023/10/15 07:42:48;;;;;;;1.45;0.20;;;7.50;99.90;;;;;;5100796;28;20075;-67
2023/10/15 07:45:15;;;;;;;1.83;0.20;;;7.50;99.90;;;;;;5103403;28;20131;-67
2023/10/15 07:47:41;;;;;;;3.20;0.40;;;7.50;99.90;;;;;;5103618;28;20043;-67
2023/10/15 07:50:17;;;;;;;3.88;0.90;;;7.50;99.90;;;;;;5099476;28;20389;-67
2023/10/15 07:52:44;;;;;;;2.63;0.73;;;7.50;99.90;;;;;;5113320;28;20279;-67
2023/10/15 07:55:13;;;;;;;2.97;0.30;;;7.40;99.90;;;;;;5101594;28;20040;-67
2023/10/15 07:57:39;;;;;;;6.80;0.40;;;7.50;99.90;;;;;;5099752;28;20048;-66
2023/10/15 08:00:07;;;;;;;6.50;0.30;;;7.50;99.90;;;;;;5099897;28;20131;-67
2023/10/15 08:02:34;;;;;;;2.38;0.20;;;7.60;99.90;;;;;;5100474;28;20134;-67
2023/10/15 08:05:00;;;;;;;1.67;0.28;;;7.60;99.90;;;;;;5129594;27;20081;-66
2023/10/15 08:07:28;;;;;;;3.85;0.22;;;7.70;99.90;;;;;;5101379;28;20035;-67
2023/10/15 08:09:53;;;;;;;2.58;0.20;;;7.80;99.90;;;;;;5103913;27;20084;-66
2023/10/15 08:12:20;;;;;;;3.60;0.45;;;7.80;99.90;;;;;;5099509;28;20036;-66
2023/10/15 08:14:47;;;;;;;2.28;0.52;;;7.90;99.90;;;;;;5103955;27;20146;-66
2023/10/15 08:17:15;;;;;;;0.47;0.20;;;8.10;99.90;;;;;;5103741;27;20386;-66
2023/10/15 08:19:41;;;;;;;1.15;0.20;;;8.30;99.90;;;;;;5133203;27;20127;-66
2023/10/15 08:22:07;;;;;;;5.03;0.40;;;8.40;99.90;;;;;;5104408;27;20115;-67
2023/10/15 08:24:33;;;;;;;2.97;0.30;;;8.50;99.90;;;;;;5103320;27;20044;-66
2023/10/15 08:26:59;;;;;;;1.85;0.20;;;8.50;99.90;;;;;;5102525;27;20449;-67
2023/10/15 08:29:25;;;;;;;6.80;0.63;;;8.50;99.90;;;;;;5106157;27;20129;-66
2023/10/15 08:31:51;;;;;;;3.53;0.25;;;8.50;99.90;;;;;;5101710;27;20127;-66
2023/10/15 08:34:17;;;;;;;5.50;0.25;;;8.50;99.90;;;;;;5104217;27;20561;-66
2023/10/15 08:36:42;;;;;;;3.10;0.17;;;8.60;99.90;;;;;;5101088;27;20050;-66
2023/10/15 08:39:08;;;;;;;2.20;0.40;;;8.70;99.90;;;;;;5135615;27;20390;-66
2023/10/15 08:41:38;;;;;;;2.65;0.17;;;8.70;99.90;;;;;;5134218;27;20139;-66
2023/10/15 08:44:07;;;;;;;0.88;0.20;;;8.80;99.90;;;;;;5135715;27;20046;-66
2023/10/15 08:46:37;;;;;;;3.03;0.20;;;8.90;99.90;;;;;;5099660;28;20043;-66
2023/10/15 08:49:06;;;;;;;2.35;0.28;;;9.00;99.90;;;;;;5103246;27;20434;-67
2023/10/15 08:51:34;;;;;;;2.55;0.45;;;9.10;99.90;;;;;;5102191;27;20040;-67
2023/10/15 08:54:02;;;;;;;2.85;0.30;;;9.20;99.90;;;;;;5134498;27;20071;-67
2023/10/15 08:56:30;;;;;;;1.23;0.10;;;9.30;99.90;;;;;;5101196;27;20047;-67
2023/10/15 08:58:57;;;;;;;1.77;0.30;;;9.30;99.90;;;;;;5106144;27;20032;-67
2023/10/15 09:01:23;;;;;;;1.83;0.20;;;9.50;99.90;;;;;;5101557;27;20078;-67
2023/10/15 09:03:53;;;;;;;3.25;0.43;;;9.60;99.90;;;;;;5103956;27;20130;-67
2023/10/15 09:06:19;;;;;;;2.15;0.17;;;9.60;99.90;;;;;;5104334;27;20067;-67
2023/10/15 09:08:46;;;;;;;2.65;0.20;;;9.60;99.90;;;;;;5100262;27;20085;-67
2023/10/15 09:11:12;;;;;;;1.58;0.40;;;9.70;99.90;;;;;;5100647;27;20167;-66
2023/10/15 09:13:38;;;;;;;2.25;0.20;;;9.80;99.90;;;;;;5101077;28;20079;-66
2023/10/15 09:16:06;;;;;;;2.28;0.20;;;9.80;99.90;;;;;;5133923;27;20642;-66
2023/10/15 09:18:35;;;;;;;1.50;0.30;;;9.80;99.90;;;;;;5098141;27;20054;-66
2023/10/15 09:21:05;;;;;;;6.75;1.70;;;9.80;99.90;;;;;;5099809;27;20039;-66
2023/10/15 09:23:33;;;;;;;3.25;0.30;;;9.90;99.90;;;;;;5132664;27;20084;-66
2023/10/15 09:25:59;;;;;;;5.35;0.60;;;9.90;99.90;;;;;;5104068;27;20040;-66
2023/10/15 09:28:27;;;;;;;3.67;0.68;;;10.10;99.90;;;;;;5100858;27;20413;-66
2023/10/15 09:31:10;;;;;;;3.90;0.22;;;10.10;99.90;;;;;;5105234;27;20386;-66
2023/10/15 09:33:37;;;;;;;3.67;0.40;;;10.10;99.90;;;;;;5135493;27;20032;-66
2023/10/15 09:36:04;;;;;;;3.22;0.60;;;10.20;99.90;;;;;;5104511;27;20032;-66
2023/10/15 09:38:39;;;;;;;2.42;0.40;;;10.20;99.90;;;;;;5100609;27;20622;-66
2023/10/15 09:41:10;;;;;;;2.38;0.50;;;10.20;99.90;;;;;;5105459;27;20042;-66
2023/10/15 09:43:35;;;;;;;5.03;0.73;;;10.20;99.90;;;;;;5100717;28;20053;-66
2023/10/15 09:46:03;;;;;;;2.40;0.40;;;10.30;99.90;;;;;;5101479;27;20043;-66
2023/10/15 09:48:29;;;;;;;3.60;0.43;;;10.30;99.90;;;;;;5101820;27;20500;-66
2023/10/15 09:50:59;;;;;;;7.00;0.50;;;10.40;99.90;;;;;;5130995;27;20044;-66
2023/10/15 09:53:27;;;;;;;3.53;0.30;;;10.40;99.90;;;;;;5132663;27;20056;-66
2023/10/15 09:55:54;;;;;;;3.72;0.93;;;10.60;99.90;;;;;;5101888;27;20121;-66
2023/10/15 09:58:20;;;;;;;3.35;0.30;;;10.70;99.90;;;;;;5102483;27;20105;-66
2023/10/15 10:03:40;;;;;;;2.88;0.43;;;10.80;99.90;;;;;;5101495;27;20432;-66
2023/10/15 10:06:27;;;;;;;3.70;0.50;;;10.80;99.90;;;;;;5102231;27;20046;-66
2023/10/15 10:09:36;;;;;;;2.17;1.05;;;10.90;99.90;;;;;;5094883;27;20053;-66
2023/10/15 10:12:16;;;;;;;5.75;0.82;;;10.80;99.90;;;;;;5100151;27;20069;-66
2023/10/15 10:14:54;;;;;;;2.58;0.40;;;10.70;99.90;;;;;;5103249;28;20493;-66
2023/10/15 10:17:21;;;;;;;3.90;0.50;;;10.50;99.90;;;;;;5100348;27;20047;-67
2023/10/15 10:19:52;;;;;;;4.15;0.95;;;10.30;99.90;;;;;;5100233;27;20104;-67
2023/10/15 10:22:28;;;;;;;5.78;1.05;;;10.10;99.90;;;;;;5098765;27;20051;-67
2023/10/15 10:25:00;;;;;;;4.47;0.90;;;10.00;99.90;;;;;;5100173;27;20036;-67
2023/10/15 10:27:26;;;;;;;2.97;0.43;;;10.00;99.90;;;;;;5100859;27;20405;-66
2023/10/15 10:29:53;;;;;;;5.35;0.70;;;10.00;99.90;;;;;;5103996;27;20409;-66
2023/10/15 10:32:21;;;;;;;1.95;0.45;;;10.00;99.90;;;;;;5100713;27;20095;-66
2023/10/15 10:35:20;;;;;;;3.78;1.02;;;9.90;99.90;;;;;;5101078;27;20052;-66
2023/10/15 10:38:06;;;;;;;4.47;0.60;;;9.90;99.90;;;;;;5091451;28;20060;-67
2023/10/15 10:40:48;;;;;;;5.82;0.65;;;9.90;99.90;;;;;;5134367;27;20047;-67
2023/10/15 10:43:19;;;;;;;5.32;0.60;;;9.80;99.90;;;;;;5130980;27;20073;-67
2023/10/15 10:45:53;;;;;;;1.98;0.63;;;9.90;99.90;;;;;;5104169;27;20059;-66
2023/10/15 10:48:24;;;;;;;6.00;1.13;;;10.00;99.90;;;;;;5133202;27;20035;-66
2023/10/15 10:51:30;;;;;;;3.47;0.98;;;10.10;99.90;;;;;;5098492;27;20055;-66
2023/10/15 10:53:55;;;;;;;3.70;0.57;;;10.40;99.90;;;;;;5100884;28;20036;-66
2023/10/15 10:56:25;;;;;;;4.70;1.30;;;10.60;99.90;;;;;;5090419;27;20410;-66
2023/10/15 10:58:57;;;;;;;6.93;0.95;;;10.90;99.90;;;;;;5104865;27;20046;-66
2023/10/15 11:01:23;;;;;;;3.22;0.50;;;11.30;99.90;;;;;;5104868;27;20044;-66
2023/10/15 11:03:52;;;;;;;4.45;0.50;;;11.40;99.90;;;;;;5132041;27;20179;-66
2023/10/15 11:06:18;;;;;;;4.18;0.52;;;11.70;99.90;;;;;;5107398;27;20497;-66
2023/10/15 11:08:50;;;;;;;2.95;0.60;;;12.00;99.90;;;;;;5100950;27;20103;-66
2023/10/15 11:11:18;;;;;;;3.30;0.65;;;12.20;99.90;;;;;;5102972;27;20052;-66
2023/10/15 11:13:44;;;;;;;3.33;0.80;;;12.50;99.90;;;;;;5105532;27;20084;-66
2023/10/15 11:16:10;;;;;;;5.05;0.60;;;12.70;99.90;;;;;;5103701;27;20055;-67
2023/10/15 11:18:37;;;;;;;6.43;0.77;;;12.90;99.90;;;;;;5104491;27;21137;-67
2023/10/15 11:21:02;;;;;;;4.25;0.50;;;13.10;99.90;;;;;;5132459;27;20042;-66
2023/10/15 11:23:28;;;;;;;1.50;0.30;;;13.30;99.90;;;;;;5131141;27;20474;-67
2023/10/15 11:25:54;;;;;;;2.42;0.30;;;13.40;99.90;;;;;;5099379;27;20057;-66
2023/10/15 11:28:20;;;;;;;1.70;0.40;;;13.20;99.90;;;;;;5102034;27;20087;-66
2023/10/15 11:30:46;;;;;;;2.08;0.30;;;13.20;99.90;;;;;;5100646;27;20047;-66
2023/10/15 11:33:16;;;;;;;3.25;0.38;;;13.10;99.90;;;;;;5103973;28;20092;-67
2023/10/15 11:35:43;;;;;;;3.10;0.52;;;13.20;99.90;;;;;;5104246;27;20044;-67
2023/10/15 11:38:10;;;;;;;0.60;0.25;;;13.30;99.90;;;;;;5130685;27;20576;-66
2023/10/15 11:40:39;;;;;;;2.60;0.40;;;13.50;99.90;;;;;;5132133;27;20039;-66
2023/10/15 11:43:17;;;;;;;3.38;0.50;;;13.60;99.90;;;;;;5104935;27;20130;-66
2023/10/15 11:45:45;;;;;;;4.28;0.70;;;13.70;99.90;;;;;;5107598;28;20046;-66
2023/10/15 11:48:14;;;;;;;3.28;0.52;;;13.80;99.90;;;;;;5102619;28;20401;-66
2023/10/15 11:50:41;;;;;;;3.53;0.50;;;13.80;99.90;;;;;;5103910;28;20125;-66
2023/10/15 11:53:16;;;;;;;1.45;0.30;;;14.00;99.90;;;;;;5130272;27;20489;-65
2023/10/15 11:55:52;;;;;;;1.73;0.22;;;14.00;99.90;;;;;;5102287;28;20056;-66
2023/10/15 11:58:27;;;;;;;3.03;0.40;;;14.00;99.90;;;;;;5100503;28;20130;-66
2023/10/15 12:00:53;;;;;;;4.18;0.68;;;13.80;99.90;;;;;;5136384;27;20056;-66
2023/10/15 12:03:20;;;;;;;2.58;0.32;;;14.10;99.90;;;;;;5100867;28;20031;-66
2023/10/15 12:05:50;;;;;;;3.10;0.43;;;14.00;99.90;;;;;;5103610;28;20035;-66
2023/10/15 12:08:17;;;;;;;2.50;0.30;;;14.10;99.90;;;;;;5099122;28;20108;-67
2023/10/15 12:10:43;;;;;;;2.78;0.30;;;14.10;99.90;;;;;;5107245;28;20043;-67
2023/10/15 12:13:09;;;;;;;1.35;0.40;;;14.40;99.90;;;;;;5102303;28;20035;-67
2023/10/15 12:15:35;;;;;;;2.47;0.28;;;14.40;99.90;;;;;;5101963;28;20513;-66
2023/10/15 12:18:04;;;;;;;1.65;0.20;;;14.40;99.90;;;;;;5101115;28;20036;-66
2023/10/15 12:20:30;;;;;;;2.35;0.52;;;14.30;99.90;;;;;;5103773;28;20119;-66
2023/10/15 12:22:56;;;;;;;1.55;0.20;;;14.20;99.90;;;;;;5102589;28;20027;-66
2023/10/15 12:25:21;;;;;;;1.13;0.50;;;14.20;99.90;;;;;;5102264;28;20088;-66
2023/10/15 12:27:47;;;;;;;1.88;0.30;;;14.20;99.90;;;;;;5106189;28;20036;-66
2023/10/15 12:30:28;;;;;;;2.22;0.32;;;14.10;99.90;;;;;;5102968;28;20088;-66
2023/10/15 12:32:55;;;;;;;5.47;0.38;;;14.00;99.90;;;;;;5101279;28;20637;-67
2023/10/15 12:35:22;;;;;;;3.78;0.73;;;13.80;99.90;;;;;;5106597;28;20504;-67
2023/10/15 12:37:49;;;;;;;3.50;0.47;;;13.60;99.90;;;;;;5101636;28;20031;-67
2023/10/15 12:40:29;;;;;;;2.63;0.35;;;13.50;99.90;;;;;;5100886;28;20482;-67
2023/10/15 12:42:54;;;;;;;4.10;0.38;;;13.50;99.90;;;;;;5100006;28;20504;-67
2023/10/15 12:45:21;;;;;;;4.65;0.43;;;13.30;99.90;;;;;;5100783;28;20071;-67
2023/10/15 12:47:47;;;;;;;2.30;0.30;;;13.00;99.90;;;;;;5103051;28;20043;-67
2023/10/15 12:50:16;;;;;;;3.92;0.60;;;12.80;99.90;;;;;;5099297;28;20044;-67
2023/10/15 12:52:46;;;;;;;2.92;0.40;;;12.60;99.90;;;;;;5099987;28;20051;-67
2023/10/15 12:55:15;;;;;;;4.75;0.73;;;12.40;99.90;;;;;;5102884;27;20036;-67
2023/10/15 12:57:41;;;;;;;4.38;0.50;;;12.20;99.90;;;;;;5136545;27;20131;-67
2023/10/15 13:00:17;;;;;;;3.38;0.50;;;12.00;99.90;;;;;;5104700;27;20031;-66
2023/10/15 13:02:49;;;;;;;;;;;11.80;99.90;;;;;;5135774;27;20054;-67
2023/10/15 13:05:24;;;;;;;6.50;0.50;;;11.70;99.90;;;;;;5103657;27;20076;-67
2023/10/15 13:07:52;;;;;;;3.70;0.73;;;11.60;99.90;;;;;;5105348;27;20104;-67
2023/10/15 13:10:19;;;;;;;6.40;1.17;;;11.70;99.90;;;;;;5106807;27;20027;-67
2023/10/15 13:12:48;;;;;;;9.32;1.38;;;11.70;99.90;;;;;;5103831;27;20401;-66
2023/10/15 13:15:16;;;;;;;5.50;1.10;;;11.90;99.90;;;;;;5136885;27;20135;-67
2023/10/15 13:17:41;;;;;;;2.35;0.35;;;12.00;99.90;;;;;;5102019;27;20393;-67
2023/10/15 13:20:13;;;;;;;8.45;0.68;;;12.00;99.90;;;;;;5103551;27;20039;-67
2023/10/15 13:22:40;;;;;;;3.67;0.40;;;12.00;99.90;;;;;;5100469;28;20044;-67
2023/10/15 13:25:11;;;;;;;4.78;0.63;;;12.10;99.90;;;;;;5103792;27;20618;-67
2023/10/15 13:27:40;;;;;;;4.13;0.88;;;12.10;99.90;;;;;;5103326;27;20043;-67